createdAt,value
2019-02-22T00:01:11.815Z,9.59
2019-02-22T00:03:43.441Z,9.58
2019-02-22T00:06:13.917Z,9.58
2019-02-22T00:08:45.715Z,9.58
2019-02-22T00:11:22.704Z,9.56
2019-02-22T00:14:00.415Z,9.57
2019-02-22T00:16:32.441Z,9.57
2019-02-22T00:19:03.954Z,9.55
2019-02-22T00:21:33.964Z,9.55
2019-02-22T00:24:10.242Z,9.55
2019-02-22T00:26:54.182Z,9.56
2019-02-22T00:29:26.680Z,9.57
2019-02-22T00:32:02.771Z,9.57
2019-02-22T00:34:38.405Z,9.56
2019-02-22T00:37:14.921Z,9.56
2019-02-22T00:39:47.420Z,9.55
2019-02-22T00:42:19.448Z,9.53
2019-02-22T00:44:55.532Z,9.53
2019-02-22T00:47:32.065Z,9.50
2019-02-22T00:50:01.898Z,9.49
2019-02-22T00:52:35.416Z,9.48
2019-02-22T00:55:06.761Z,9.47
2019-02-22T00:57:38.118Z,9.47
2019-02-22T01:02:43.041Z,9.45
2019-02-22T01:05:14.863Z,9.44
2019-02-22T01:07:48.943Z,9.43
2019-02-22T01:10:30.449Z,9.43
2019-02-22T01:12:51.926Z,9.41
2019-02-22T01:15:28.938Z,9.42
2019-02-22T01:17:59.563Z,9.42
2019-02-22T01:20:30.820Z,9.44
2019-02-22T01:23:03.586Z,9.44
2019-02-22T01:25:35.478Z,9.45
2019-02-22T01:28:07.881Z,9.46
2019-02-22T01:30:45.389Z,9.46
2019-02-22T01:33:15.545Z,9.45
2019-02-22T01:35:44.988Z,9.46
2019-02-22T01:38:16.425Z,9.46
2019-02-22T01:40:46.994Z,9.45
2019-02-22T01:43:19.235Z,9.45
2019-02-22T01:45:49.162Z,9.44
2019-02-22T01:48:19.171Z,9.43
2019-02-22T01:50:51.470Z,9.41
2019-02-22T01:53:20.724Z,9.41
2019-02-22T01:55:52.097Z,9.39
2019-02-22T01:58:22.512Z,9.40
2019-02-22T02:00:55.550Z,9.40
2019-02-22T02:03:31.285Z,9.41
2019-02-22T02:06:01.485Z,9.40
2019-02-22T02:08:33.272Z,9.40
2019-02-22T02:11:02.621Z,9.39
2019-02-22T02:13:31.729Z,9.38
2019-02-22T02:16:09.392Z,9.37
2019-02-22T02:18:38.884Z,9.38
2019-02-22T02:21:10.678Z,9.38
2019-02-22T02:23:45.214Z,9.39
2019-02-22T02:26:19.919Z,9.41
2019-02-22T02:31:29.121Z,9.46
2019-02-22T02:34:01.391Z,9.48
2019-02-22T02:36:33.775Z,9.49
2019-02-22T02:39:07.994Z,9.50
2019-02-22T02:41:41.728Z,9.53
2019-02-22T02:44:12.984Z,9.53
2019-02-22T02:46:47.072Z,9.53
2019-02-22T02:49:19.342Z,9.53
2019-02-22T02:51:51.035Z,9.53
2019-02-22T02:54:23.058Z,9.53
2019-02-22T02:56:52.820Z,9.52
2019-02-22T02:59:24.504Z,9.52
2019-02-22T03:01:56.189Z,9.52
2019-02-22T03:04:27.431Z,9.53
2019-02-22T03:07:05.513Z,9.57
2019-02-22T03:09:36.071Z,9.62
2019-02-22T03:12:07.724Z,9.64
2019-02-22T03:14:40.935Z,9.65
2019-02-22T03:17:12.363Z,9.67
2019-02-22T03:19:55.933Z,9.66
2019-02-22T03:22:29.520Z,9.67
2019-02-22T03:25:00.329Z,9.67
2019-02-22T03:27:32.020Z,9.67
2019-02-22T03:30:04.281Z,9.66
2019-02-22T03:32:34.775Z,9.68
2019-02-22T03:35:04.969Z,9.67
2019-02-22T03:37:35.309Z,9.66
2019-02-22T03:40:06.613Z,9.65
2019-02-22T03:42:36.834Z,9.66
2019-02-22T03:45:06.952Z,9.66
2019-02-22T03:47:38.402Z,9.66
2019-02-22T03:50:08.843Z,9.65
2019-02-22T03:52:49.620Z,9.66
2019-02-22T03:55:20.260Z,9.65
2019-02-22T03:57:53.793Z,9.64
2019-02-22T04:00:28.987Z,9.63
2019-02-22T04:02:59.391Z,9.62
2019-02-22T04:05:33.029Z,9.61
2019-02-22T04:08:04.048Z,9.61
2019-02-22T04:10:48.475Z,9.61
2019-02-22T04:13:18.707Z,9.61
2019-02-22T04:15:49.160Z,9.61
2019-02-22T04:18:19.003Z,9.61
2019-02-22T04:20:49.783Z,9.62
2019-02-22T04:23:22.817Z,9.63
2019-02-22T04:25:56.308Z,9.63
2019-02-22T04:28:26.613Z,9.62
2019-02-22T04:30:59.702Z,9.60
2019-02-22T04:33:30.157Z,9.60
2019-02-22T04:36:07.406Z,9.59
2019-02-22T04:38:41.607Z,9.57
2019-02-22T04:41:15.443Z,9.56
2019-02-22T04:43:46.859Z,9.53
2019-02-22T04:46:20.067Z,9.49
2019-02-22T04:48:53.473Z,9.46
2019-02-22T04:51:23.444Z,9.43
2019-02-22T04:53:59.693Z,9.39
2019-02-22T04:56:36.509Z,9.36
2019-02-22T04:59:10.190Z,9.31
2019-02-22T05:01:41.005Z,9.30
2019-02-22T05:04:11.266Z,9.25
2019-02-22T05:06:43.484Z,9.20
2019-02-22T05:09:14.698Z,9.15
2019-02-22T05:11:45.914Z,9.12
2019-02-22T05:14:17.450Z,9.08
2019-02-22T05:16:50.890Z,9.04
2019-02-22T05:19:20.914Z,9.01
2019-02-22T05:21:57.162Z,9.02
2019-02-22T05:24:30.053Z,9.02
2019-02-22T05:27:00.446Z,9.00
2019-02-22T05:29:32.956Z,8.98
2019-02-22T05:32:03.490Z,8.95
2019-02-22T05:34:34.362Z,8.96
2019-02-22T05:37:04.671Z,8.96
2019-02-22T05:39:38.552Z,8.94
2019-02-22T05:42:22.267Z,8.93
2019-02-22T05:44:42.685Z,8.92
2019-02-22T05:47:21.207Z,8.92
2019-02-22T05:49:51.539Z,8.90
2019-02-22T05:52:22.455Z,8.92
2019-02-22T05:54:57.291Z,8.92
2019-02-22T05:57:29.461Z,8.92
2019-02-22T05:59:59.759Z,8.94
2019-02-22T06:02:30.350Z,8.94
2019-02-22T06:05:00.017Z,8.95
2019-02-22T06:07:34.051Z,8.95
2019-02-22T06:10:04.061Z,8.95
2019-02-22T06:12:38.210Z,8.95
2019-02-22T06:15:10.121Z,8.94
2019-02-22T06:17:48.735Z,8.95
2019-02-22T06:22:51.735Z,8.95
2019-02-22T06:25:23.874Z,8.96
2019-02-22T06:27:57.691Z,8.97
2019-02-22T06:30:27.785Z,8.97
2019-02-22T06:32:58.132Z,8.98
2019-02-22T06:35:34.354Z,8.98
2019-02-22T06:38:03.999Z,9.00
2019-02-22T06:40:35.576Z,9.01
2019-02-22T06:43:06.260Z,9.02
2019-02-22T06:45:44.469Z,9.02
2019-02-22T06:48:14.321Z,9.02
2019-02-22T06:50:45.775Z,9.04
2019-02-22T06:53:27.187Z,9.06
2019-02-22T06:55:58.200Z,9.06
2019-02-22T06:58:28.173Z,9.09
2019-02-22T07:00:58.724Z,9.11
2019-02-22T07:03:28.861Z,9.15
2019-02-22T07:08:37.533Z,9.22
2019-02-22T07:11:15.248Z,9.24
2019-02-22T07:13:44.547Z,9.28
2019-02-22T07:16:23.575Z,9.32
2019-02-22T07:18:54.906Z,9.35
2019-02-22T07:21:26.457Z,9.38
2019-02-22T07:23:57.253Z,9.40
2019-02-22T07:26:30.442Z,9.41
2019-02-22T07:29:01.737Z,9.42
2019-02-22T07:31:32.115Z,9.44
2019-02-22T07:34:03.058Z,9.45
2019-02-22T07:36:34.776Z,9.44
2019-02-22T07:39:11.873Z,9.47
2019-02-22T07:41:44.780Z,9.45
2019-02-22T07:44:16.915Z,9.47
2019-02-22T07:46:51.079Z,9.49
2019-02-22T07:49:26.541Z,9.52
2019-02-22T07:52:02.773Z,9.54
2019-02-22T07:54:37.282Z,9.57
2019-02-22T07:57:07.716Z,9.59
2019-02-22T07:59:40.389Z,9.62
2019-02-22T08:02:11.034Z,9.66
2019-02-22T08:04:40.974Z,9.69
2019-02-22T08:07:12.329Z,9.74
2019-02-22T08:09:46.074Z,9.78
2019-02-22T08:12:18.118Z,9.84
2019-02-22T08:14:49.287Z,9.89
2019-02-22T08:17:28.520Z,9.92
2019-02-22T08:20:07.050Z,9.96
2019-02-22T08:22:46.492Z,10.00
2019-02-22T08:25:17.708Z,10.00
2019-02-22T08:27:53.856Z,10.03
2019-02-22T08:30:18.391Z,10.06
2019-02-22T08:32:50.074Z,10.08
2019-02-22T08:35:27.095Z,10.12
2019-02-22T08:40:44.655Z,10.19
2019-02-22T08:43:18.825Z,10.23
2019-02-22T08:45:52.473Z,10.25
2019-02-22T08:48:38.393Z,10.28
2019-02-22T08:51:11.486Z,10.32
2019-02-22T08:53:53.768Z,10.34
2019-02-22T08:57:06.572Z,10.38
2019-02-22T09:03:00.547Z,10.45
2019-02-22T09:08:33.291Z,10.54
2019-02-22T09:11:12.091Z,10.59
2019-02-22T09:18:27.930Z,10.66
2019-02-22T09:21:01.138Z,10.70
2019-02-22T09:23:34.723Z,10.73
2019-02-22T09:26:13.212Z,10.74
2019-02-22T09:28:59.110Z,10.71
2019-02-22T09:31:42.948Z,10.70
2019-02-22T09:34:20.621Z,10.66
2019-02-22T09:36:58.209Z,10.61
2019-02-22T09:39:37.738Z,10.57
2019-02-22T09:45:03.057Z,10.51
2019-02-22T09:47:37.432Z,10.48
2019-02-22T09:52:58.290Z,10.45
2019-02-22T09:55:42.353Z,10.49
2019-02-22T09:58:20.094Z,10.52
2019-02-22T10:00:49.815Z,10.57
2019-02-22T10:03:19.393Z,10.61
2019-02-22T10:05:53.838Z,10.67
2019-02-22T10:08:27.718Z,10.67
2019-02-22T10:11:00.807Z,10.67
2019-02-22T10:13:44.959Z,10.69
2019-02-22T10:16:17.292Z,10.72
2019-02-22T10:18:48.046Z,10.73
2019-02-22T10:21:19.206Z,10.75
2019-02-22T10:26:32.105Z,10.80
2019-02-22T10:29:11.881Z,10.82
2019-02-22T10:31:47.062Z,10.82
2019-02-22T10:34:18.420Z,10.83
2019-02-22T10:36:49.918Z,10.84
2019-02-22T10:39:28.588Z,10.88
2019-02-22T10:42:15.758Z,10.90
2019-02-22T10:44:46.896Z,10.94
2019-02-22T10:47:28.849Z,10.97
2019-02-22T10:50:04.486Z,10.97
2019-02-22T10:52:42.649Z,11.00
2019-02-22T10:55:16.584Z,11.02
2019-02-22T10:57:57.917Z,11.02
2019-02-22T11:00:29.349Z,11.05
2019-02-22T11:03:00.881Z,11.07
2019-02-22T11:05:34.830Z,11.11
2019-02-22T11:08:15.862Z,11.15
2019-02-22T11:10:48.307Z,11.21
2019-02-22T11:13:21.409Z,11.27
2019-02-22T11:18:53.712Z,11.40
2019-02-22T11:21:24.348Z,11.44
2019-02-22T11:23:58.042Z,11.49
2019-02-22T11:26:32.480Z,11.51
2019-02-22T11:29:09.654Z,11.52
2019-02-22T11:31:40.844Z,11.55
2019-02-22T11:34:22.968Z,11.57
2019-02-22T11:37:08.253Z,11.59
2019-02-22T11:39:39.981Z,11.64
2019-02-22T11:42:09.190Z,11.70
2019-02-22T11:44:47.326Z,11.73
2019-02-22T11:47:22.505Z,11.77
2019-02-22T11:49:56.652Z,11.80
2019-02-22T11:52:29.435Z,11.87
2019-02-22T11:55:00.773Z,11.94
2019-02-22T11:57:32.352Z,12.04
2019-02-22T12:00:07.470Z,12.11
2019-02-22T12:02:41.473Z,12.19
2019-02-22T12:05:14.584Z,12.25
2019-02-22T12:07:52.030Z,12.28
2019-02-22T12:10:29.383Z,12.30
2019-02-22T12:13:00.831Z,12.32
2019-02-22T12:15:31.588Z,12.32
2019-02-22T12:18:07.459Z,12.35
2019-02-22T12:20:43.408Z,12.39
2019-02-22T12:23:17.872Z,12.41
2019-02-22T12:25:49.517Z,12.45
2019-02-22T12:31:31.851Z,12.55
2019-02-22T12:34:02.788Z,12.58
2019-02-22T12:36:32.536Z,12.63
2019-02-22T12:39:05.625Z,12.65
2019-02-22T12:41:42.114Z,12.70
2019-02-22T12:44:14.090Z,12.74
2019-02-22T12:46:47.036Z,12.81
2019-02-22T12:49:16.554Z,12.87
2019-02-22T12:51:48.623Z,12.89
2019-02-22T12:54:21.864Z,12.92
2019-02-22T12:57:00.211Z,12.99
2019-02-22T12:59:32.621Z,13.05
2019-02-22T13:02:12.653Z,13.11
2019-02-22T13:04:48.054Z,13.18
2019-02-22T13:12:46.125Z,13.40
2019-02-22T13:15:16.406Z,13.44
2019-02-22T13:20:42.430Z,13.54
2019-02-22T13:23:12.354Z,13.55
2019-02-22T13:25:43.687Z,13.55
2019-02-22T13:28:17.610Z,13.50
2019-02-22T13:30:50.603Z,13.45
2019-02-22T13:33:22.751Z,13.41
2019-02-22T13:35:56.022Z,13.40
2019-02-22T13:38:31.225Z,13.35
2019-02-22T13:41:06.878Z,13.33
2019-02-22T13:43:41.944Z,13.31
2019-02-22T13:46:12.328Z,13.31
2019-02-22T13:48:43.262Z,13.32
2019-02-22T13:51:16.863Z,13.32
2019-02-22T13:53:49.788Z,13.30
2019-02-22T13:56:29.280Z,13.29
2019-02-22T13:58:53.343Z,13.29
2019-02-22T14:01:30.810Z,13.26
2019-02-22T14:04:05.463Z,13.23
2019-02-22T14:06:36.834Z,13.20
2019-02-22T14:09:08.794Z,13.18
2019-02-22T14:11:42.263Z,13.14
2019-02-22T14:14:18.492Z,13.10
2019-02-22T14:16:54.323Z,13.08
2019-02-22T14:19:29.609Z,13.05
2019-02-22T14:22:00.261Z,13.04
2019-02-22T14:27:20.128Z,12.96
2019-02-22T14:29:55.767Z,12.88
2019-02-22T14:32:26.204Z,12.83
2019-02-22T14:35:01.246Z,12.81
2019-02-22T14:37:37.423Z,12.78
2019-02-22T14:40:16.991Z,12.80
2019-02-22T14:42:48.299Z,12.82
2019-02-22T14:45:19.434Z,12.83
2019-02-22T14:47:52.479Z,12.82
2019-02-22T14:50:23.386Z,12.80
2019-02-22T14:53:16.635Z,12.75
2019-02-22T14:55:38.941Z,12.70
2019-02-22T14:58:13.931Z,12.65
2019-02-22T15:00:44.464Z,12.60
2019-02-22T15:03:17.687Z,12.54
2019-02-22T15:05:48.103Z,12.50
2019-02-22T15:08:17.231Z,12.47
2019-02-22T15:10:50.900Z,12.46
2019-02-22T15:13:19.950Z,12.44
2019-02-22T15:16:03.802Z,12.42
2019-02-22T15:18:42.275Z,12.40
2019-02-22T15:21:11.990Z,12.41
2019-02-22T15:23:41.474Z,12.40
2019-02-22T15:26:13.601Z,12.39
2019-02-22T15:28:43.223Z,12.33
2019-02-22T15:31:14.504Z,12.31
2019-02-22T15:33:47.376Z,12.30
2019-02-22T15:36:19.450Z,12.28
2019-02-22T15:38:50.461Z,12.22
2019-02-22T15:41:21.729Z,12.12
2019-02-22T15:43:59.267Z,12.06
2019-02-22T15:46:37.080Z,12.00
2019-02-22T15:49:10.934Z,11.97
2019-02-22T15:51:44.115Z,11.93
2019-02-22T15:54:18.926Z,11.90
2019-02-22T15:56:54.389Z,11.87
2019-02-22T15:59:27.323Z,11.84
2019-02-22T16:02:05.581Z,11.79
2019-02-22T16:04:59.818Z,11.76
2019-02-22T16:07:44.322Z,11.74
2019-02-22T16:10:05.309Z,11.73
2019-02-22T16:12:40.593Z,11.69
2019-02-22T16:15:23.060Z,11.66
2019-02-22T16:17:53.892Z,11.65
2019-02-22T16:20:24.449Z,11.64
2019-02-22T16:22:55.518Z,11.62
2019-02-22T16:25:24.639Z,11.58
2019-02-22T16:27:56.552Z,11.53
2019-02-22T16:30:28.920Z,11.47
2019-02-22T16:32:58.778Z,11.37
2019-02-22T16:38:09.208Z,11.18
2019-02-22T16:40:39.065Z,11.09
2019-02-22T16:45:52.494Z,10.95
2019-02-22T16:48:24.827Z,10.92
2019-02-22T16:51:02.402Z,10.89
2019-02-22T16:53:31.898Z,10.85
2019-02-22T16:56:07.938Z,10.80
2019-02-22T16:58:40.060Z,10.74
2019-02-22T17:03:49.226Z,10.69
2019-02-22T17:06:23.491Z,10.65
2019-02-22T17:08:54.058Z,10.59
2019-02-22T17:11:25.933Z,10.51
2019-02-22T17:13:56.242Z,10.48
2019-02-22T17:16:25.602Z,10.45
2019-02-22T17:18:56.920Z,10.40
2019-02-22T17:21:26.151Z,10.34
2019-02-22T17:23:57.050Z,10.26
2019-02-22T17:26:28.661Z,10.18
2019-02-22T17:29:00.633Z,10.11
2019-02-22T17:31:35.854Z,10.06
2019-02-22T17:34:07.305Z,10.00
2019-02-22T17:36:42.062Z,9.95
2019-02-22T17:39:12.312Z,9.91
2019-02-22T17:41:42.968Z,9.87
2019-02-22T17:44:12.455Z,9.84
2019-02-22T17:46:44.710Z,9.80
2019-02-22T17:49:17.066Z,9.77
2019-02-22T17:51:47.346Z,9.74
2019-02-22T17:54:19.436Z,9.69
2019-02-22T17:56:51.339Z,9.64
2019-02-22T17:59:23.766Z,9.62
2019-02-22T18:01:54.744Z,9.60
2019-02-22T18:04:26.357Z,9.55
2019-02-22T18:06:58.146Z,9.53
2019-02-22T18:09:29.037Z,9.50
2019-02-22T18:11:59.905Z,9.48
2019-02-22T18:14:30.622Z,9.45
2019-02-22T18:17:07.951Z,9.43
2019-02-22T18:19:42.370Z,9.40
2019-02-22T18:22:25.225Z,9.37
2019-02-22T18:24:49.592Z,9.34
2019-02-22T18:29:58.433Z,9.32
2019-02-22T18:32:29.399Z,9.30
2019-02-22T18:35:07.027Z,9.29
2019-02-22T18:37:40.603Z,9.28
2019-02-22T18:40:15.602Z,9.25
2019-02-22T18:42:48.099Z,9.24
2019-02-22T18:45:18.232Z,9.23
2019-02-22T18:48:03.597Z,9.21
2019-02-22T18:50:34.038Z,9.20
2019-02-22T18:53:05.087Z,9.18
2019-02-22T18:55:49.556Z,9.17
2019-02-22T18:58:18.234Z,9.15
2019-02-22T19:00:49.883Z,9.15
2019-02-22T19:03:20.973Z,9.15
2019-02-22T19:05:53.443Z,9.14
2019-02-22T19:08:32.447Z,9.13
2019-02-22T19:11:01.858Z,9.12
2019-02-22T19:13:33.251Z,9.10
2019-02-22T19:16:04.520Z,9.08
2019-02-22T19:18:41.719Z,9.05
2019-02-22T19:21:18.513Z,9.03
2019-02-22T19:23:52.209Z,9.03
2019-02-22T19:26:29.707Z,9.02
2019-02-22T19:29:00.901Z,9.00
2019-02-22T19:31:32.615Z,8.98
2019-02-22T19:34:01.944Z,8.98
2019-02-22T19:39:14.226Z,8.95
2019-02-22T19:41:46.053Z,8.94
2019-02-22T19:44:20.465Z,8.93
2019-02-22T19:49:31.049Z,8.92
2019-02-22T19:52:09.917Z,8.90
2019-02-22T19:54:40.099Z,8.89
2019-02-22T19:57:11.453Z,8.88
2019-02-22T19:59:44.709Z,8.86
2019-02-22T20:02:20.461Z,8.86
2019-02-22T20:04:59.722Z,8.84
2019-02-22T20:07:30.161Z,8.83
2019-02-22T20:10:01.304Z,8.82
2019-02-22T20:12:34.781Z,8.81
2019-02-22T20:15:05.669Z,8.79
2019-02-22T20:17:40.286Z,8.79
2019-02-22T20:20:12.334Z,8.80
2019-02-22T20:22:46.230Z,8.79
2019-02-22T20:25:17.832Z,8.80
2019-02-22T20:27:55.825Z,8.80
2019-02-22T20:30:26.967Z,8.80
2019-02-22T20:33:01.013Z,8.80
2019-02-22T20:35:37.085Z,8.81
2019-02-22T20:38:09.879Z,8.84
2019-02-22T20:40:43.783Z,8.83
2019-02-22T20:43:14.105Z,8.83
2019-02-22T20:45:50.116Z,8.84
2019-02-22T20:48:25.909Z,8.85
2019-02-22T20:50:55.050Z,8.85
2019-02-22T20:53:26.666Z,8.83
2019-02-22T20:55:59.332Z,8.82
2019-02-22T20:58:29.554Z,8.79
2019-02-22T21:01:00.678Z,8.75
2019-02-22T21:03:32.044Z,8.74
2019-02-22T21:06:04.973Z,8.74
2019-02-22T21:08:35.025Z,8.73
2019-02-22T21:11:11.904Z,8.73
2019-02-22T21:13:42.415Z,8.73
2019-02-22T21:16:14.931Z,8.71
2019-02-22T21:18:47.834Z,8.73
2019-02-22T21:21:18.147Z,8.74
2019-02-22T21:23:52.658Z,8.76
2019-02-22T21:26:24.426Z,8.77
2019-02-22T21:28:55.532Z,8.79
2019-02-22T21:31:28.367Z,8.80
2019-02-22T21:33:59.954Z,8.82
2019-02-22T21:36:31.137Z,8.82
2019-02-22T21:39:03.007Z,8.81
2019-02-22T21:41:33.458Z,8.78
2019-02-22T21:44:04.140Z,8.77
2019-02-22T21:46:34.790Z,8.74
2019-02-22T21:49:07.552Z,8.73
2019-02-22T21:54:26.083Z,8.72
2019-02-22T21:56:57.011Z,8.69
2019-02-22T21:59:32.862Z,8.68
2019-02-22T22:02:10.174Z,8.65
2019-02-22T22:04:46.208Z,8.64
2019-02-22T22:07:19.242Z,8.64
2019-02-22T22:09:52.018Z,8.64
2019-02-22T22:12:21.547Z,8.66
2019-02-22T22:14:52.908Z,8.66
2019-02-22T22:17:23.154Z,8.67
2019-02-22T22:19:53.011Z,8.67
2019-02-22T22:22:27.840Z,8.69
2019-02-22T22:24:58.059Z,8.69
2019-02-22T22:27:29.791Z,8.68
2019-02-22T22:30:07.836Z,8.66
2019-02-22T22:32:37.400Z,8.66
2019-02-22T22:35:08.793Z,8.65
2019-02-22T22:37:39.385Z,8.62
2019-02-22T22:40:10.345Z,8.62
2019-02-22T22:42:40.459Z,8.61
2019-02-22T22:45:10.785Z,8.59
2019-02-22T22:47:42.366Z,8.57
2019-02-22T22:50:13.358Z,8.55
2019-02-22T22:52:44.844Z,8.54
2019-02-22T22:55:15.219Z,8.53
2019-02-22T22:57:48.438Z,8.52
2019-02-22T23:00:35.619Z,8.50
2019-02-22T23:03:04.825Z,8.49
2019-02-22T23:05:38.356Z,8.46
2019-02-22T23:08:10.146Z,8.45
2019-02-22T23:10:45.539Z,8.43
2019-02-22T23:13:15.549Z,8.42
2019-02-22T23:15:44.668Z,8.42
2019-02-22T23:18:15.731Z,8.41
2019-02-22T23:20:46.955Z,8.40
2019-02-22T23:23:17.810Z,8.38
2019-02-22T23:25:48.428Z,8.38
2019-02-22T23:28:21.738Z,8.36
2019-02-22T23:30:50.741Z,8.34
2019-02-22T23:33:21.666Z,8.34
2019-02-22T23:35:54.217Z,8.35
2019-02-22T23:38:30.654Z,8.36
2019-02-22T23:41:03.742Z,8.35
2019-02-22T23:43:36.033Z,8.35
2019-02-22T23:46:05.789Z,8.36
2019-02-22T23:48:35.977Z,8.36
2019-02-22T23:51:05.313Z,8.37
2019-02-22T23:53:35.833Z,8.38
2019-02-22T23:56:06.370Z,8.38
2019-02-22T23:58:36.642Z,8.39
